createdAt,value
2022-08-28T00:00:00.621Z,25.95
2022-08-28T00:00:30.603Z,25.92
2022-08-28T00:01:00.587Z,25.92
2022-08-28T00:01:30.565Z,25.93
2022-08-28T00:02:00.550Z,25.92
2022-08-28T00:02:30.592Z,25.92
2022-08-28T00:03:00.732Z,25.92
2022-08-28T00:03:30.784Z,25.92
2022-08-28T00:04:00.762Z,25.93
2022-08-28T00:04:30.858Z,25.92
2022-08-28T00:05:00.981Z,25.92
2022-08-28T00:05:31.025Z,25.92
2022-08-28T00:06:01.014Z,25.90
2022-08-28T00:06:30.998Z,25.93
2022-08-28T00:07:00.971Z,25.90
2022-08-28T00:07:30.966Z,25.92
2022-08-28T00:08:00.985Z,25.92
2022-08-28T00:08:30.961Z,25.92
2022-08-28T00:09:00.956Z,25.90
2022-08-28T00:09:30.934Z,25.90
2022-08-28T00:10:00.913Z,25.90
2022-08-28T00:10:30.908Z,25.92
2022-08-28T00:11:00.889Z,25.90
2022-08-28T00:11:30.904Z,25.90
2022-08-28T00:12:01.032Z,25.90
2022-08-28T00:12:31.018Z,25.92
2022-08-28T00:13:01.006Z,25.90
2022-08-28T00:13:31.012Z,25.90
2022-08-28T00:14:01.012Z,25.89
2022-08-28T00:14:31.000Z,25.89
2022-08-28T00:15:01.006Z,25.90
2022-08-28T00:15:30.988Z,25.90
2022-08-28T00:16:01.151Z,25.89
2022-08-28T00:16:31.264Z,25.89
2022-08-28T00:17:01.270Z,25.89
2022-08-28T00:17:31.252Z,25.89
2022-08-28T00:18:01.246Z,25.89
2022-08-28T00:18:31.242Z,25.90
2022-08-28T00:19:01.254Z,25.89
2022-08-28T00:19:33.501Z,25.90
2022-08-28T00:20:06.163Z,25.88
2022-08-28T00:20:36.146Z,25.90
2022-08-28T00:21:06.137Z,25.89
2022-08-28T00:21:36.134Z,25.89
2022-08-28T00:22:06.113Z,25.88
2022-08-28T00:22:36.092Z,25.88
2022-08-28T00:23:06.092Z,25.88
2022-08-28T00:23:42.513Z,25.89
2022-08-28T00:24:11.008Z,25.88
2022-08-28T00:24:41.005Z,25.88
2022-08-28T00:25:10.984Z,25.88
2022-08-28T00:25:40.966Z,25.88
2022-08-28T00:26:10.947Z,25.86
2022-08-28T00:26:40.928Z,25.88
2022-08-28T00:27:10.939Z,25.86
2022-08-28T00:27:40.923Z,25.88
2022-08-28T00:28:11.051Z,25.86
2022-08-28T00:28:45.842Z,25.88
2022-08-28T00:29:15.839Z,25.86
2022-08-28T00:29:45.818Z,25.86
2022-08-28T00:30:15.817Z,25.86
2022-08-28T00:30:45.806Z,25.86
2022-08-28T00:31:15.825Z,25.88
2022-08-28T00:31:45.871Z,25.88
2022-08-28T00:32:15.896Z,25.88
2022-08-28T00:32:45.894Z,25.88
2022-08-28T00:33:15.880Z,25.86
2022-08-28T00:33:48.106Z,25.88
2022-08-28T00:34:18.286Z,25.86
2022-08-28T00:34:48.277Z,25.88
2022-08-28T00:35:18.256Z,25.86
2022-08-28T00:35:48.240Z,25.88
2022-08-28T00:36:18.230Z,25.86
2022-08-28T00:36:48.212Z,25.86
2022-08-28T00:37:18.194Z,25.85
2022-08-28T00:37:48.298Z,25.85
2022-08-28T00:38:19.239Z,25.85
2022-08-28T00:38:49.973Z,25.85
2022-08-28T00:39:19.954Z,25.85
2022-08-28T00:39:50.047Z,25.85
2022-08-28T00:40:30.459Z,25.85
2022-08-28T00:40:55.009Z,25.86
2022-08-28T00:41:27.546Z,25.86
2022-08-28T00:41:58.341Z,25.86
2022-08-28T00:42:29.077Z,25.85
2022-08-28T00:42:59.067Z,25.85
2022-08-28T00:43:29.070Z,25.86
2022-08-28T00:43:59.049Z,25.85
2022-08-28T00:44:29.044Z,25.85
2022-08-28T00:44:59.033Z,25.85
2022-08-28T00:45:29.015Z,25.85
2022-08-28T00:45:59.014Z,25.85
2022-08-28T00:46:29.057Z,25.85
2022-08-28T00:46:59.068Z,25.85
2022-08-28T00:47:29.066Z,25.83
2022-08-28T00:47:59.046Z,25.85
2022-08-28T00:48:29.027Z,25.83
2022-08-28T00:48:59.013Z,25.85
2022-08-28T00:49:29.014Z,25.85
2022-08-28T00:49:59.001Z,25.85
2022-08-28T00:50:28.981Z,25.83
2022-08-28T00:51:00.548Z,25.83
2022-08-28T00:51:30.906Z,25.83
2022-08-28T00:52:00.896Z,25.85
2022-08-28T00:52:30.873Z,25.82
2022-08-28T00:53:00.871Z,25.82
2022-08-28T00:53:32.956Z,25.82
2022-08-28T00:54:07.488Z,25.81
2022-08-28T00:54:37.966Z,25.81
2022-08-28T00:55:07.949Z,25.83
2022-08-28T00:55:37.959Z,25.82
2022-08-28T00:56:12.792Z,25.81
2022-08-28T00:56:42.876Z,25.83
2022-08-28T00:57:12.871Z,25.82
2022-08-28T00:57:42.853Z,25.81
2022-08-28T00:58:12.999Z,25.81
2022-08-28T00:58:43.208Z,25.81
2022-08-28T00:59:13.203Z,25.82
2022-08-28T00:59:43.200Z,25.81
2022-08-28T01:00:13.182Z,25.82
2022-08-28T01:00:43.177Z,25.81
2022-08-28T01:01:13.246Z,25.82
2022-08-28T01:01:43.389Z,25.81
2022-08-28T01:02:13.439Z,25.82
2022-08-28T01:02:43.499Z,25.82
2022-08-28T01:03:13.615Z,25.83
2022-08-28T01:03:43.650Z,25.83
2022-08-28T01:04:13.652Z,25.82
2022-08-28T01:04:43.649Z,25.78
2022-08-28T01:05:13.639Z,25.78
2022-08-28T01:05:43.652Z,25.81
2022-08-28T01:06:13.632Z,25.81
2022-08-28T01:06:43.637Z,25.78
2022-08-28T01:07:13.616Z,25.78
2022-08-28T01:07:43.599Z,25.78
2022-08-28T01:08:13.744Z,25.78
2022-08-28T01:08:43.882Z,25.78
2022-08-28T01:09:20.915Z,25.78
2022-08-28T01:09:51.099Z,25.78
2022-08-28T01:10:21.082Z,25.78
2022-08-28T01:10:51.065Z,25.78
2022-08-28T01:11:21.059Z,25.78
2022-08-28T01:11:51.063Z,25.78
2022-08-28T01:12:21.042Z,25.78
2022-08-28T01:12:51.034Z,25.78
2022-08-28T01:13:21.027Z,25.78
2022-08-28T01:13:51.023Z,25.77
2022-08-28T01:14:21.009Z,25.78
2022-08-28T01:14:50.990Z,25.77
2022-08-28T01:15:20.972Z,25.77
2022-08-28T01:15:51.026Z,25.77
2022-08-28T01:16:21.127Z,25.78
2022-08-28T01:16:51.162Z,25.77
2022-08-28T01:17:21.160Z,25.78
2022-08-28T01:17:51.142Z,25.77
2022-08-28T01:18:21.121Z,25.77
2022-08-28T01:18:51.105Z,25.75
2022-08-28T01:19:21.667Z,25.75
2022-08-28T01:19:51.648Z,25.75
2022-08-28T01:20:21.639Z,25.77
2022-08-28T01:20:51.644Z,25.75
2022-08-28T01:21:21.626Z,25.75
2022-08-28T01:21:51.609Z,25.75
2022-08-28T01:22:21.595Z,25.77
2022-08-28T01:22:51.570Z,25.77
2022-08-28T01:23:21.556Z,25.77
2022-08-28T01:23:51.558Z,25.75
2022-08-28T01:24:21.535Z,25.77
2022-08-28T01:24:51.518Z,25.77
2022-08-28T01:25:21.495Z,25.77
2022-08-28T01:25:51.473Z,25.77
2022-08-28T01:26:21.454Z,25.75
2022-08-28T01:26:51.448Z,25.75
2022-08-28T01:27:21.428Z,25.75
2022-08-28T01:27:53.970Z,25.75
2022-08-28T01:28:23.967Z,25.74
2022-08-28T01:28:53.966Z,25.74
2022-08-28T01:29:23.961Z,25.75
2022-08-28T01:29:53.949Z,25.77
2022-08-28T01:30:23.929Z,25.77
2022-08-28T01:30:53.973Z,25.75
2022-08-28T01:31:24.085Z,25.74
2022-08-28T01:31:54.107Z,25.75
2022-08-28T01:32:24.112Z,25.75
2022-08-28T01:32:54.110Z,25.75
2022-08-28T01:33:28.170Z,25.74
2022-08-28T01:33:58.365Z,25.75
2022-08-28T01:34:28.357Z,25.74
2022-08-28T01:34:58.333Z,25.73
2022-08-28T01:35:28.313Z,25.73
2022-08-28T01:35:58.291Z,25.74
2022-08-28T01:36:28.307Z,25.73
2022-08-28T01:36:58.484Z,25.73
2022-08-28T01:37:28.607Z,25.74
2022-08-28T01:37:58.586Z,25.74
2022-08-28T01:38:28.576Z,25.74
2022-08-28T01:38:58.558Z,25.74
2022-08-28T01:39:28.543Z,25.74
2022-08-28T01:39:58.584Z,25.74
2022-08-28T01:40:28.662Z,25.74
2022-08-28T01:40:58.669Z,25.74
2022-08-28T01:41:28.659Z,25.74
2022-08-28T01:41:58.639Z,25.74
2022-08-28T01:42:28.644Z,25.74
2022-08-28T01:42:58.621Z,25.74
2022-08-28T01:43:28.610Z,25.75
2022-08-28T01:43:58.610Z,25.73
2022-08-28T01:44:28.601Z,25.74
2022-08-28T01:44:58.581Z,25.73
2022-08-28T01:45:28.577Z,25.73
2022-08-28T01:45:59.044Z,25.73
2022-08-28T01:46:29.119Z,25.74
2022-08-28T01:46:59.133Z,25.73
2022-08-28T01:47:29.110Z,25.74
2022-08-28T01:47:59.093Z,25.73
2022-08-28T01:48:29.085Z,25.73
2022-08-28T01:48:59.079Z,25.70
2022-08-28T01:49:29.072Z,25.71
2022-08-28T01:49:59.053Z,25.73
2022-08-28T01:50:29.046Z,25.71
2022-08-28T01:50:59.025Z,25.71
2022-08-28T01:51:29.017Z,25.71
2022-08-28T01:52:03.946Z,25.71
2022-08-28T01:52:33.933Z,25.71
2022-08-28T01:53:03.930Z,25.71
2022-08-28T01:53:35.322Z,25.71
2022-08-28T01:54:05.305Z,25.71
2022-08-28T01:54:35.291Z,25.71
2022-08-28T01:55:05.997Z,25.70
2022-08-28T01:55:35.972Z,25.70
2022-08-28T01:56:06.589Z,25.70
2022-08-28T01:56:36.616Z,25.73
2022-08-28T01:57:06.619Z,25.70
2022-08-28T01:57:36.600Z,25.73
2022-08-28T01:58:06.819Z,25.71
2022-08-28T01:58:38.432Z,25.71
2022-08-28T01:59:08.636Z,25.71
2022-08-28T01:59:38.617Z,25.71
2022-08-28T02:00:11.091Z,25.70
2022-08-28T02:00:41.071Z,25.71
2022-08-28T02:01:11.144Z,25.71
2022-08-28T02:01:41.261Z,25.71
2022-08-28T02:02:11.269Z,25.71
2022-08-28T02:02:41.250Z,25.71
2022-08-28T02:03:11.243Z,25.70
2022-08-28T02:03:41.233Z,25.71
2022-08-28T02:04:11.321Z,25.70
2022-08-28T02:04:43.343Z,25.71
2022-08-28T02:05:15.022Z,25.70
2022-08-28T02:05:45.003Z,25.70
2022-08-28T02:06:15.009Z,25.70
2022-08-28T02:06:44.996Z,25.70
2022-08-28T02:07:15.019Z,25.70
2022-08-28T02:07:45.002Z,25.68
2022-08-28T02:08:15.150Z,25.68
2022-08-28T02:08:45.197Z,25.70
2022-08-28T02:09:15.188Z,25.70
2022-08-28T02:09:45.178Z,25.68
2022-08-28T02:10:15.181Z,25.70
2022-08-28T02:10:45.173Z,25.68
2022-08-28T02:11:15.153Z,25.67
2022-08-28T02:11:46.302Z,25.67
2022-08-28T02:12:16.917Z,25.68
2022-08-28T02:12:46.907Z,25.68
2022-08-28T02:13:16.879Z,25.67
2022-08-28T02:13:47.441Z,25.67
2022-08-28T02:14:20.822Z,25.67
2022-08-28T02:14:50.824Z,25.67
2022-08-28T02:15:20.819Z,25.68
2022-08-28T02:15:53.785Z,25.68
2022-08-28T02:16:23.844Z,25.68
2022-08-28T02:16:53.846Z,25.68
2022-08-28T02:17:23.843Z,25.67
2022-08-28T02:17:53.825Z,25.68
2022-08-28T02:18:23.800Z,25.68
2022-08-28T02:18:53.785Z,25.68
2022-08-28T02:19:23.784Z,25.68
2022-08-28T02:19:53.778Z,25.70
2022-08-28T02:20:23.758Z,25.68
2022-08-28T02:20:53.748Z,25.68
2022-08-28T02:21:23.728Z,25.67
2022-08-28T02:21:53.738Z,25.68
2022-08-28T02:22:23.729Z,25.68
2022-08-28T02:22:53.733Z,25.68
2022-08-28T02:23:23.709Z,25.67
2022-08-28T02:23:53.695Z,25.67
2022-08-28T02:24:23.675Z,25.67
2022-08-28T02:24:53.657Z,25.68
2022-08-28T02:25:23.639Z,25.66
2022-08-28T02:25:53.622Z,25.67
2022-08-28T02:26:23.616Z,25.66
2022-08-28T02:26:53.608Z,25.67
2022-08-28T02:27:23.597Z,25.64
2022-08-28T02:27:53.599Z,25.67
2022-08-28T02:28:23.578Z,25.66
2022-08-28T02:28:53.564Z,25.67
2022-08-28T02:29:23.544Z,25.66
2022-08-28T02:29:53.526Z,25.66
2022-08-28T02:30:23.520Z,25.67
2022-08-28T02:30:53.524Z,25.66
2022-08-28T02:31:23.585Z,25.64
2022-08-28T02:31:53.610Z,25.66
2022-08-28T02:32:23.587Z,25.64
2022-08-28T02:32:53.570Z,25.66
2022-08-28T02:33:23.564Z,25.64
2022-08-28T02:33:53.556Z,25.64
2022-08-28T02:34:25.398Z,25.64
2022-08-28T02:34:55.377Z,25.64
2022-08-28T02:35:25.358Z,25.64
2022-08-28T02:35:55.334Z,25.64
2022-08-28T02:36:25.309Z,25.64
2022-08-28T02:36:55.284Z,25.64
2022-08-28T02:37:25.279Z,25.63
2022-08-28T02:37:55.561Z,25.64
2022-08-28T02:38:25.660Z,25.64
2022-08-28T02:38:57.885Z,25.66
2022-08-28T02:39:28.046Z,25.64
2022-08-28T02:39:58.119Z,25.64
2022-08-28T02:40:28.238Z,25.64
2022-08-28T02:40:58.257Z,25.64
2022-08-28T02:41:28.250Z,25.64
2022-08-28T02:41:58.232Z,25.64
2022-08-28T02:42:28.214Z,25.64
2022-08-28T02:42:58.210Z,25.64
2022-08-28T02:43:28.200Z,25.64
2022-08-28T02:43:58.336Z,25.63
2022-08-28T02:44:28.329Z,25.63
2022-08-28T02:44:58.342Z,25.63
2022-08-28T02:45:28.391Z,25.63
2022-08-28T02:45:58.394Z,25.64
2022-08-28T02:46:28.495Z,25.64
2022-08-28T02:46:58.538Z,25.66
2022-08-28T02:47:28.519Z,25.64
2022-08-28T02:47:58.501Z,25.66
2022-08-28T02:48:28.487Z,25.64
2022-08-28T02:48:58.478Z,25.64
2022-08-28T02:49:29.093Z,25.63
2022-08-28T02:50:03.375Z,25.64
2022-08-28T02:50:33.377Z,25.63
2022-08-28T02:51:03.362Z,25.64
2022-08-28T02:51:33.348Z,25.61
2022-08-28T02:52:03.339Z,25.63
2022-08-28T02:52:33.342Z,25.63
2022-08-28T02:53:03.318Z,25.63
2022-08-28T02:53:33.292Z,25.63
2022-08-28T02:54:03.290Z,25.63
2022-08-28T02:54:33.293Z,25.63
2022-08-28T02:55:03.288Z,25.63
2022-08-28T02:55:34.300Z,25.63
2022-08-28T02:56:04.368Z,25.64
2022-08-28T02:56:34.347Z,25.63
2022-08-28T02:57:04.335Z,25.64
2022-08-28T02:57:34.327Z,25.61
2022-08-28T02:58:04.311Z,25.63
2022-08-28T02:58:34.289Z,25.63
2022-08-28T02:59:04.297Z,25.61
2022-08-28T02:59:34.275Z,25.61
2022-08-28T03:00:04.265Z,25.61
2022-08-28T03:00:34.333Z,25.61
2022-08-28T03:01:04.428Z,25.61
2022-08-28T03:01:34.562Z,25.61
2022-08-28T03:02:04.608Z,25.61
2022-08-28T03:02:34.672Z,25.61
2022-08-28T03:03:04.706Z,25.63
2022-08-28T03:03:35.022Z,25.63
2022-08-28T03:04:06.899Z,25.63
2022-08-28T03:04:36.882Z,25.61
2022-08-28T03:05:06.877Z,25.61
2022-08-28T03:05:36.856Z,25.59
2022-08-28T03:06:06.842Z,25.61
2022-08-28T03:06:36.818Z,25.59
2022-08-28T03:07:06.826Z,25.61
2022-08-28T03:07:36.804Z,25.59
2022-08-28T03:08:06.889Z,25.59
2022-08-28T03:08:36.897Z,25.59
2022-08-28T03:09:06.887Z,25.59
2022-08-28T03:09:36.861Z,25.59
2022-08-28T03:10:06.838Z,25.61
2022-08-28T03:10:36.851Z,25.59
2022-08-28T03:11:06.831Z,25.61
2022-08-28T03:11:36.829Z,25.59
2022-08-28T03:12:06.815Z,25.61
2022-08-28T03:12:36.793Z,25.59
2022-08-28T03:13:06.783Z,25.61
2022-08-28T03:13:36.760Z,25.59
2022-08-28T03:14:06.755Z,25.59
2022-08-28T03:14:36.748Z,25.61
2022-08-28T03:15:06.752Z,25.61
2022-08-28T03:15:36.750Z,25.59
2022-08-28T03:16:06.759Z,25.58
2022-08-28T03:16:36.831Z,25.59
2022-08-28T03:17:06.838Z,25.61
2022-08-28T03:17:36.826Z,25.59
2022-08-28T03:18:08.113Z,25.59
2022-08-28T03:18:41.240Z,25.58
2022-08-28T03:19:11.220Z,25.59
2022-08-28T03:19:41.211Z,25.58
2022-08-28T03:20:11.200Z,25.59
2022-08-28T03:20:41.206Z,25.58
2022-08-28T03:21:11.197Z,25.59
2022-08-28T03:21:41.178Z,25.58
2022-08-28T03:22:11.159Z,25.59
2022-08-28T03:22:41.142Z,25.56
2022-08-28T03:23:11.132Z,25.58
2022-08-28T03:23:41.115Z,25.56
2022-08-28T03:24:11.092Z,25.56
2022-08-28T03:24:45.196Z,25.58
2022-08-28T03:25:15.193Z,25.58
2022-08-28T03:25:45.167Z,25.58
2022-08-28T03:26:15.149Z,25.58
2022-08-28T03:26:45.142Z,25.56
2022-08-28T03:27:15.119Z,25.59
2022-08-28T03:27:45.095Z,25.58
2022-08-28T03:28:16.710Z,25.58
2022-08-28T03:28:46.706Z,25.56
2022-08-28T03:29:16.684Z,25.58
2022-08-28T03:29:46.664Z,25.56
2022-08-28T03:30:16.654Z,25.56
2022-08-28T03:30:46.695Z,25.55
2022-08-28T03:31:16.782Z,25.58
2022-08-28T03:31:46.865Z,25.56
2022-08-28T03:32:16.877Z,25.56
2022-08-28T03:32:46.862Z,25.56
2022-08-28T03:33:16.850Z,25.56
2022-08-28T03:33:46.869Z,25.55
2022-08-28T03:34:16.848Z,25.58
2022-08-28T03:34:46.850Z,25.56
2022-08-28T03:35:17.280Z,25.58
2022-08-28T03:35:47.272Z,25.55
2022-08-28T03:36:17.287Z,25.56
2022-08-28T03:36:47.293Z,25.56
2022-08-28T03:37:17.274Z,25.56
2022-08-28T03:37:47.259Z,25.55
2022-08-28T03:38:17.259Z,25.55
2022-08-28T03:38:47.257Z,25.55
2022-08-28T03:39:17.231Z,25.55
2022-08-28T03:39:47.228Z,25.55
2022-08-28T03:40:17.274Z,25.56
2022-08-28T03:40:47.273Z,25.56
2022-08-28T03:41:17.264Z,25.56
2022-08-28T03:41:47.253Z,25.53
2022-08-28T03:42:17.245Z,25.55
2022-08-28T03:42:52.998Z,25.53
2022-08-28T03:43:22.162Z,25.55
2022-08-28T03:43:52.155Z,25.55
2022-08-28T03:44:22.176Z,25.55
2022-08-28T03:44:52.153Z,25.53
2022-08-28T03:45:22.133Z,25.55
2022-08-28T03:45:52.193Z,25.53
2022-08-28T03:46:22.245Z,25.55
2022-08-28T03:46:52.247Z,25.55
2022-08-28T03:47:23.241Z,25.55
2022-08-28T03:47:53.592Z,25.53
2022-08-28T03:48:23.576Z,25.55
2022-08-28T03:48:53.628Z,25.53
2022-08-28T03:49:23.609Z,25.55
2022-08-28T03:49:53.625Z,25.53
2022-08-28T03:50:23.885Z,25.55
2022-08-28T03:50:54.777Z,25.55
2022-08-28T03:51:29.169Z,25.55
2022-08-28T03:51:59.818Z,25.55
2022-08-28T03:52:29.794Z,25.53
2022-08-28T03:52:59.766Z,25.52
2022-08-28T03:53:29.753Z,25.55
2022-08-28T03:53:59.747Z,25.52
2022-08-28T03:54:29.747Z,25.55
2022-08-28T03:54:59.734Z,25.53
2022-08-28T03:55:29.714Z,25.55
2022-08-28T03:55:59.710Z,25.52
2022-08-28T03:56:29.689Z,25.53
2022-08-28T03:56:59.673Z,25.52
2022-08-28T03:57:29.666Z,25.52
2022-08-28T03:57:59.660Z,25.51
2022-08-28T03:58:29.640Z,25.52
2022-08-28T03:58:59.653Z,25.53
2022-08-28T03:59:31.635Z,25.52
2022-08-28T04:00:03.447Z,25.52
2022-08-28T04:00:33.428Z,25.52
2022-08-28T04:01:03.484Z,25.52
2022-08-28T04:01:33.681Z,25.52
2022-08-28T04:02:03.747Z,25.51
2022-08-28T04:02:33.719Z,25.53
2022-08-28T04:03:03.792Z,25.53
2022-08-28T04:03:34.000Z,25.52
2022-08-28T04:04:04.011Z,25.52
2022-08-28T04:04:33.991Z,25.52
2022-08-28T04:05:03.972Z,25.52
2022-08-28T04:05:33.956Z,25.52
2022-08-28T04:06:03.937Z,25.52
2022-08-28T04:06:33.939Z,25.52
2022-08-28T04:07:06.079Z,25.51
2022-08-28T04:07:36.058Z,25.51
2022-08-28T04:08:40.969Z,25.51
2022-08-28T04:09:10.971Z,25.49
2022-08-28T04:09:40.974Z,25.49
2022-08-28T04:10:10.955Z,25.51
2022-08-28T04:10:40.938Z,25.49
2022-08-28T04:11:10.933Z,25.51
2022-08-28T04:11:40.935Z,25.51
2022-08-28T04:12:10.914Z,25.49
2022-08-28T04:12:40.914Z,25.51
2022-08-28T04:13:10.901Z,25.51
2022-08-28T04:13:40.886Z,25.51
2022-08-28T04:14:11.055Z,25.49
2022-08-28T04:14:41.042Z,25.51
2022-08-28T04:15:11.028Z,25.52
2022-08-28T04:15:41.011Z,25.51
2022-08-28T04:16:11.174Z,25.51
2022-08-28T04:16:41.369Z,25.52
2022-08-28T04:17:11.534Z,25.52
2022-08-28T04:17:41.578Z,25.52
2022-08-28T04:18:11.650Z,25.52
2022-08-28T04:18:41.689Z,25.52
2022-08-28T04:19:11.667Z,25.51
2022-08-28T04:19:41.664Z,25.51
2022-08-28T04:20:11.645Z,25.48
2022-08-28T04:20:41.640Z,25.51
2022-08-28T04:21:16.457Z,25.51
2022-08-28T04:21:46.458Z,25.51
2022-08-28T04:22:16.436Z,25.51
2022-08-28T04:22:47.843Z,25.52
2022-08-28T04:23:17.827Z,25.51
2022-08-28T04:23:47.826Z,25.52
2022-08-28T04:24:17.803Z,25.52
2022-08-28T04:24:47.789Z,25.52
2022-08-28T04:25:17.770Z,25.51
2022-08-28T04:25:47.768Z,25.51
2022-08-28T04:26:17.752Z,25.51
2022-08-28T04:26:47.728Z,25.51
2022-08-28T04:27:17.712Z,25.49
2022-08-28T04:27:47.694Z,25.51
2022-08-28T04:28:17.685Z,25.51
2022-08-28T04:28:47.665Z,25.52
2022-08-28T04:29:17.641Z,25.52
2022-08-28T04:29:47.620Z,25.53
2022-08-28T04:30:17.604Z,25.52
2022-08-28T04:30:47.574Z,25.52
2022-08-28T04:31:17.596Z,25.52
2022-08-28T04:31:47.657Z,25.52
2022-08-28T04:32:17.760Z,25.51
2022-08-28T04:32:47.771Z,25.52
2022-08-28T04:33:17.789Z,25.52
2022-08-28T04:33:47.770Z,25.52
2022-08-28T04:34:17.758Z,25.51
2022-08-28T04:34:47.738Z,25.51
2022-08-28T04:35:17.752Z,25.52
2022-08-28T04:35:47.734Z,25.52
2022-08-28T04:36:17.718Z,25.49
2022-08-28T04:36:47.706Z,25.51
2022-08-28T04:37:17.731Z,25.51
2022-08-28T04:37:47.715Z,25.51
2022-08-28T04:38:17.718Z,25.51
2022-08-28T04:38:47.714Z,25.52
2022-08-28T04:39:17.691Z,25.52
2022-08-28T04:39:47.672Z,25.51
2022-08-28T04:40:17.697Z,25.51
2022-08-28T04:40:47.700Z,25.52
2022-08-28T04:41:17.700Z,25.52
2022-08-28T04:41:47.679Z,25.52
2022-08-28T04:42:17.683Z,25.52
2022-08-28T04:42:47.679Z,25.53
2022-08-28T04:43:17.652Z,25.52
2022-08-28T04:43:47.750Z,25.52
2022-08-28T04:44:17.735Z,25.52
2022-08-28T04:44:47.717Z,25.52
2022-08-28T04:45:17.713Z,25.53
2022-08-28T04:45:47.732Z,25.53
2022-08-28T04:46:17.783Z,25.53
2022-08-28T04:46:48.327Z,25.53
2022-08-28T04:47:18.427Z,25.55
2022-08-28T04:47:48.408Z,25.53
2022-08-28T04:48:18.654Z,25.53
2022-08-28T04:48:48.748Z,25.55
2022-08-28T04:49:18.743Z,25.53
2022-08-28T04:49:48.723Z,25.55
2022-08-28T04:50:18.698Z,25.53
2022-08-28T04:50:48.686Z,25.53
2022-08-28T04:51:18.665Z,25.56
2022-08-28T04:51:48.649Z,25.56
2022-08-28T04:52:18.646Z,25.56
2022-08-28T04:52:48.656Z,25.55
2022-08-28T04:53:18.643Z,25.53
2022-08-28T04:53:48.652Z,25.55
2022-08-28T04:54:18.644Z,25.55
2022-08-28T04:54:48.640Z,25.55
2022-08-28T04:55:18.622Z,25.53
2022-08-28T04:55:55.247Z,25.55
2022-08-28T04:56:25.432Z,25.55
2022-08-28T04:56:55.436Z,25.56
2022-08-28T04:57:25.443Z,25.56
2022-08-28T04:57:55.442Z,25.58
2022-08-28T04:58:25.419Z,25.56
2022-08-28T04:58:55.413Z,25.58
2022-08-28T04:59:25.419Z,25.58
2022-08-28T04:59:55.412Z,25.58
2022-08-28T05:00:25.396Z,25.56
2022-08-28T05:00:55.479Z,25.58
2022-08-28T05:01:25.583Z,25.58
2022-08-28T05:01:55.695Z,25.58
2022-08-28T05:02:25.835Z,25.56
2022-08-28T05:02:55.897Z,25.58
2022-08-28T05:03:25.886Z,25.58
2022-08-28T05:03:55.895Z,25.58
2022-08-28T05:04:25.876Z,25.58
2022-08-28T05:04:55.861Z,25.59
2022-08-28T05:05:25.856Z,25.58
2022-08-28T05:05:55.846Z,25.59
2022-08-28T05:06:25.834Z,25.59
2022-08-28T05:06:55.826Z,25.59
2022-08-28T05:07:25.814Z,25.59
2022-08-28T05:07:55.797Z,25.59
2022-08-28T05:08:25.779Z,25.59
2022-08-28T05:08:55.759Z,25.61
2022-08-28T05:09:25.736Z,25.61
2022-08-28T05:09:55.753Z,25.63
2022-08-28T05:10:25.744Z,25.61
2022-08-28T05:10:55.731Z,25.63
2022-08-28T05:11:33.867Z,25.64
2022-08-28T05:12:00.675Z,25.66
2022-08-28T05:12:30.667Z,25.64
2022-08-28T05:13:00.641Z,25.66
2022-08-28T05:13:30.628Z,25.66
2022-08-28T05:14:00.608Z,25.67
2022-08-28T05:14:30.582Z,25.66
2022-08-28T05:15:00.587Z,25.67
2022-08-28T05:15:30.572Z,25.67
2022-08-28T05:16:00.616Z,25.67
2022-08-28T05:16:30.702Z,25.67
2022-08-28T05:17:00.740Z,25.68
2022-08-28T05:17:32.190Z,25.67
2022-08-28T05:18:02.252Z,25.68
2022-08-28T05:18:32.237Z,25.68
2022-08-28T05:19:02.215Z,25.68
2022-08-28T05:19:32.195Z,25.70
2022-08-28T05:20:02.177Z,25.70
2022-08-28T05:20:32.161Z,25.68
2022-08-28T05:21:02.143Z,25.70
2022-08-28T05:21:32.169Z,25.70
2022-08-28T05:22:02.170Z,25.71
2022-08-28T05:22:32.217Z,25.70
2022-08-28T05:23:02.193Z,25.71
2022-08-28T05:23:32.184Z,25.71
2022-08-28T05:24:02.162Z,25.71
2022-08-28T05:24:32.164Z,25.71
2022-08-28T05:25:02.161Z,25.71
2022-08-28T05:25:32.137Z,25.71
2022-08-28T05:26:02.122Z,25.71
2022-08-28T05:26:32.136Z,25.73
2022-08-28T05:27:02.480Z,25.73
2022-08-28T05:27:32.482Z,25.73
2022-08-28T05:28:02.469Z,25.73
2022-08-28T05:28:32.467Z,25.73
2022-08-28T05:29:02.442Z,25.74
2022-08-28T05:29:32.446Z,25.75
2022-08-28T05:30:02.442Z,25.75
2022-08-28T05:30:32.430Z,25.74
2022-08-28T05:31:03.207Z,25.77
2022-08-28T05:31:33.280Z,25.77
2022-08-28T05:32:03.311Z,25.77
2022-08-28T05:32:33.312Z,25.78
2022-08-28T05:33:03.300Z,25.78
2022-08-28T05:33:33.277Z,25.81
2022-08-28T05:34:03.266Z,25.82
2022-08-28T05:34:33.262Z,25.81
2022-08-28T05:35:03.243Z,25.82
2022-08-28T05:35:33.234Z,25.81
2022-08-28T05:36:03.209Z,25.83
2022-08-28T05:36:33.342Z,25.83
2022-08-28T05:37:03.336Z,25.83
2022-08-28T05:37:33.306Z,25.86
2022-08-28T05:38:03.295Z,25.85
2022-08-28T05:38:33.278Z,25.86
2022-08-28T05:39:03.262Z,25.88
2022-08-28T05:39:33.285Z,25.88
2022-08-28T05:40:03.310Z,25.89
2022-08-28T05:40:33.445Z,25.89
2022-08-28T05:41:03.453Z,25.89
2022-08-28T05:41:33.433Z,25.90
2022-08-28T05:42:03.416Z,25.93
2022-08-28T05:42:38.411Z,25.92
2022-08-28T05:43:08.336Z,25.93
2022-08-28T05:43:38.339Z,25.93
2022-08-28T05:44:08.822Z,25.96
2022-08-28T05:44:38.813Z,25.96
2022-08-28T05:45:08.784Z,25.98
2022-08-28T05:45:38.819Z,26.00
2022-08-28T05:46:08.959Z,26.01
2022-08-28T05:46:38.980Z,26.00
2022-08-28T05:47:08.961Z,26.03
2022-08-28T05:47:38.957Z,26.03
2022-08-28T05:48:08.980Z,26.05
2022-08-28T05:48:39.703Z,26.05
2022-08-28T05:49:10.424Z,26.07
2022-08-28T05:49:40.547Z,26.08
2022-08-28T05:50:10.523Z,26.11
2022-08-28T05:50:43.050Z,26.15
2022-08-28T05:51:15.423Z,26.19
2022-08-28T05:51:45.405Z,26.20
2022-08-28T05:52:15.380Z,26.23
2022-08-28T05:52:46.047Z,26.26
2022-08-28T05:53:16.059Z,26.28
2022-08-28T05:53:46.040Z,26.31
2022-08-28T05:54:16.021Z,26.33
2022-08-28T05:54:46.017Z,26.34
2022-08-28T05:55:16.028Z,26.39
2022-08-28T05:55:50.657Z,26.42
2022-08-28T05:56:20.938Z,26.45
2022-08-28T05:56:50.951Z,26.49
2022-08-28T05:57:20.936Z,26.53
2022-08-28T05:57:50.941Z,26.57
2022-08-28T05:58:20.954Z,26.65
2022-08-28T05:58:50.947Z,26.71
2022-08-28T05:59:20.957Z,26.79
2022-08-28T05:59:50.944Z,26.89
2022-08-28T06:00:20.919Z,27.00
2022-08-28T06:00:50.901Z,27.10
2022-08-28T06:01:20.908Z,27.22
2022-08-28T06:01:50.955Z,27.30
2022-08-28T06:02:20.995Z,27.37
2022-08-28T06:02:50.985Z,27.44
2022-08-28T06:03:22.624Z,27.50
2022-08-28T06:03:52.644Z,27.54
2022-08-28T06:04:22.774Z,27.63
2022-08-28T06:04:52.824Z,27.68
2022-08-28T06:05:22.830Z,27.72
2022-08-28T06:05:52.820Z,27.75
2022-08-28T06:06:22.795Z,27.80
2022-08-28T06:06:52.791Z,27.82
2022-08-28T06:07:22.772Z,27.88
2022-08-28T06:07:52.753Z,27.91
2022-08-28T06:08:22.731Z,27.94
2022-08-28T06:08:58.180Z,27.95
2022-08-28T06:09:29.587Z,28.00
2022-08-28T06:09:59.833Z,28.03
2022-08-28T06:10:29.816Z,28.07
2022-08-28T06:10:59.813Z,28.10
2022-08-28T06:11:31.030Z,28.13
2022-08-28T06:12:01.782Z,28.15
2022-08-28T06:12:32.042Z,28.17
2022-08-28T06:13:02.297Z,28.20
2022-08-28T06:13:32.922Z,28.25
2022-08-28T06:14:04.341Z,28.28
2022-08-28T06:14:34.500Z,28.30
2022-08-28T06:15:04.488Z,28.34
2022-08-28T06:15:34.473Z,28.37
2022-08-28T06:16:04.509Z,28.38
2022-08-28T06:16:35.731Z,28.43
2022-08-28T06:17:05.758Z,28.44
2022-08-28T06:17:35.738Z,28.47
2022-08-28T06:18:05.837Z,28.49
2022-08-28T06:18:35.866Z,28.52
2022-08-28T06:19:05.857Z,28.54
2022-08-28T06:19:40.573Z,28.57
2022-08-28T06:20:10.769Z,28.59
2022-08-28T06:20:40.766Z,28.62
2022-08-28T06:21:10.754Z,28.64
2022-08-28T06:21:40.729Z,28.66
2022-08-28T06:22:10.704Z,28.69
2022-08-28T06:22:40.688Z,28.72
2022-08-28T06:23:10.673Z,28.72
2022-08-28T06:23:40.927Z,28.75
2022-08-28T06:24:10.923Z,28.79
2022-08-28T06:24:40.899Z,28.80
2022-08-28T06:25:10.916Z,28.80
2022-08-28T06:25:40.901Z,28.84
2022-08-28T06:26:13.842Z,28.84
2022-08-28T06:26:43.822Z,28.87
2022-08-28T06:27:13.805Z,28.90
2022-08-28T06:27:43.787Z,28.91
2022-08-28T06:28:13.946Z,28.94
2022-08-28T06:28:44.058Z,28.96
2022-08-28T06:29:14.049Z,29.00
2022-08-28T06:29:44.026Z,29.03